createdAt,value
2023-10-06T00:05:17.092Z,45.9
2023-10-06T00:12:49.549Z,45.9
2023-10-06T00:20:22.562Z,45.9
2023-10-06T00:27:55.049Z,45.9
2023-10-06T00:35:27.484Z,45.9
2023-10-06T00:42:59.911Z,45.9
2023-10-06T00:50:32.390Z,45.8
2023-10-06T00:58:04.833Z,45.8
2023-10-06T01:05:37.273Z,45.8
2023-10-06T01:13:09.700Z,45.7
2023-10-06T01:20:42.315Z,45.7
2023-10-06T01:28:15.665Z,45.8
2023-10-06T01:35:48.093Z,45.7
2023-10-06T01:43:20.549Z,45.7
2023-10-06T01:50:52.969Z,45.8
2023-10-06T01:58:25.412Z,45.7
2023-10-06T02:05:57.904Z,45.8
2023-10-06T02:13:30.328Z,46.2
2023-10-06T02:21:02.783Z,45.7
2023-10-06T02:28:35.273Z,45.8
2023-10-06T02:36:07.731Z,45.7
2023-10-06T02:43:40.176Z,45.7
2023-10-06T02:51:12.628Z,45.8
2023-10-06T02:58:45.073Z,45.8
2023-10-06T03:06:17.538Z,45.8
2023-10-06T03:13:49.991Z,45.8
2023-10-06T03:21:22.438Z,45.8
2023-10-06T03:28:54.902Z,45.8
2023-10-06T03:36:27.343Z,45.8
2023-10-06T03:43:59.836Z,45.9
2023-10-06T03:51:32.319Z,45.9
2023-10-06T03:59:04.807Z,45.8
2023-10-06T04:06:37.309Z,46.0
2023-10-06T04:14:09.811Z,45.9
2023-10-06T04:21:42.318Z,46.0
2023-10-06T04:23:04.823Z,46.0
2023-10-06T04:23:52.281Z,46.0
2023-10-06T04:24:39.722Z,46.0
2023-10-06T04:25:27.160Z,46.0
2023-10-06T04:26:14.665Z,46.0
2023-10-06T04:27:02.137Z,46.0
2023-10-06T04:27:49.576Z,45.9
2023-10-06T04:28:37.016Z,46.0
2023-10-06T04:29:24.478Z,46.1
2023-10-06T04:30:11.914Z,46.1
2023-10-06T04:30:59.740Z,46.2
2023-10-06T04:31:47.660Z,46.3
2023-10-06T04:32:35.205Z,46.3
2023-10-06T04:33:22.695Z,46.4
2023-10-06T04:34:10.117Z,46.4
2023-10-06T04:34:57.582Z,46.5
2023-10-06T04:35:45.065Z,46.5
2023-10-06T04:36:32.543Z,46.6
2023-10-06T04:37:20.000Z,46.5
2023-10-06T04:38:07.476Z,46.5
2023-10-06T04:38:56.038Z,46.6
2023-10-06T04:39:45.386Z,46.7
2023-10-06T04:40:32.858Z,46.8
2023-10-06T04:41:20.320Z,46.7
2023-10-06T04:42:07.789Z,46.7
2023-10-06T04:42:55.246Z,46.8
2023-10-06T04:43:42.673Z,46.8
2023-10-06T04:44:30.080Z,46.8
2023-10-06T04:45:17.555Z,46.8
2023-10-06T04:46:04.969Z,46.7
2023-10-06T04:46:52.492Z,46.8
2023-10-06T04:47:39.977Z,46.8
2023-10-06T04:48:27.439Z,46.8
2023-10-06T04:49:14.909Z,46.8
2023-10-06T04:50:03.134Z,46.8
2023-10-06T04:50:50.639Z,46.8
2023-10-06T04:51:38.354Z,46.7
2023-10-06T04:52:25.820Z,46.7
2023-10-06T04:53:13.419Z,46.8
2023-10-06T04:54:00.949Z,46.8
2023-10-06T04:54:48.601Z,46.8
2023-10-06T04:55:36.034Z,46.8
2023-10-06T04:56:23.485Z,46.9
2023-10-06T04:57:10.922Z,47.2
2023-10-06T04:57:58.421Z,47.1
2023-10-06T04:58:45.911Z,47.3
2023-10-06T04:59:33.402Z,47.5
2023-10-06T05:00:20.818Z,47.4
2023-10-06T05:01:08.257Z,47.5
2023-10-06T05:01:55.777Z,47.5
2023-10-06T05:02:43.319Z,47.4
2023-10-06T05:03:30.874Z,47.4
2023-10-06T05:04:18.383Z,47.5
2023-10-06T05:05:06.105Z,47.5
2023-10-06T05:05:53.577Z,47.6
2023-10-06T05:06:41.092Z,47.6
2023-10-06T05:07:28.612Z,47.7
2023-10-06T05:08:16.130Z,47.7
2023-10-06T05:09:03.646Z,47.6
2023-10-06T05:09:51.178Z,47.6
2023-10-06T05:10:38.641Z,47.8
2023-10-06T05:11:26.104Z,48.2
2023-10-06T05:12:13.584Z,48.3
2023-10-06T05:13:01.029Z,48.2
2023-10-06T05:13:48.507Z,48.2
2023-10-06T05:14:35.992Z,47.8
2023-10-06T05:15:23.432Z,47.7
2023-10-06T05:16:10.946Z,47.7
2023-10-06T05:16:58.496Z,47.8
2023-10-06T05:17:46.094Z,47.9
2023-10-06T05:18:33.573Z,48.6
2023-10-06T05:19:21.062Z,48.0
2023-10-06T05:20:08.525Z,47.7
2023-10-06T05:20:55.990Z,47.7
2023-10-06T05:21:43.638Z,47.7
2023-10-06T05:22:31.058Z,47.5
2023-10-06T05:23:18.631Z,47.5
2023-10-06T05:24:06.093Z,47.7
2023-10-06T05:24:53.549Z,47.7
2023-10-06T05:25:41.016Z,47.8
2023-10-06T05:26:28.492Z,47.7
2023-10-06T05:27:15.964Z,47.8
2023-10-06T05:28:03.412Z,47.7
2023-10-06T05:28:50.918Z,47.7
2023-10-06T05:29:38.409Z,48.1
2023-10-06T05:30:25.885Z,48.0
2023-10-06T05:31:13.634Z,47.9
2023-10-06T05:32:01.395Z,47.8
2023-10-06T05:32:48.902Z,48.1
2023-10-06T05:33:36.477Z,48.3
2023-10-06T05:34:23.899Z,48.0
2023-10-06T05:35:11.395Z,47.8
2023-10-06T05:35:58.861Z,47.7
2023-10-06T05:36:46.546Z,47.6
2023-10-06T05:37:33.994Z,47.7
2023-10-06T05:38:21.440Z,47.5
2023-10-06T05:39:09.124Z,47.3
2023-10-06T05:39:56.746Z,47.1
2023-10-06T05:40:44.235Z,47.1
2023-10-06T05:41:31.693Z,47.0
2023-10-06T05:42:19.137Z,46.9
2023-10-06T05:43:06.582Z,47.1
2023-10-06T05:43:54.111Z,47.2
2023-10-06T05:44:41.579Z,47.1
2023-10-06T05:45:29.084Z,47.1
2023-10-06T05:46:16.585Z,47.1
2023-10-06T05:47:04.064Z,47.1
2023-10-06T05:47:51.734Z,47.3
2023-10-06T05:48:39.358Z,47.1
2023-10-06T05:49:26.810Z,47.0
2023-10-06T05:50:14.326Z,47.1
2023-10-06T05:51:01.828Z,47.1
2023-10-06T05:51:49.673Z,47.8
2023-10-06T05:52:37.170Z,47.1
2023-10-06T05:53:24.681Z,47.0
2023-10-06T05:54:12.158Z,46.9
2023-10-06T05:54:59.581Z,47.0
2023-10-06T05:55:47.242Z,47.1
2023-10-06T05:56:34.716Z,47.2
2023-10-06T05:57:22.359Z,47.3
2023-10-06T05:58:09.972Z,47.2
2023-10-06T05:58:57.589Z,47.3
2023-10-06T05:59:45.063Z,47.2
2023-10-06T06:00:32.651Z,47.1
2023-10-06T06:01:20.485Z,47.2
2023-10-06T06:02:08.050Z,47.2
2023-10-06T06:02:55.600Z,47.1
2023-10-06T06:03:43.090Z,47.1
2023-10-06T06:04:30.572Z,47.2
2023-10-06T06:05:18.050Z,47.2
2023-10-06T06:06:05.485Z,47.2
2023-10-06T06:06:52.926Z,47.4
2023-10-06T06:07:40.515Z,47.2
2023-10-06T06:08:28.035Z,47.3
2023-10-06T06:09:15.491Z,47.2
2023-10-06T06:10:03.018Z,47.2
2023-10-06T06:10:50.504Z,47.1
2023-10-06T06:11:37.988Z,47.2
2023-10-06T06:12:25.536Z,47.3
2023-10-06T06:13:12.940Z,47.3
2023-10-06T06:14:15.249Z,47.2
2023-10-06T06:14:57.847Z,47.0
2023-10-06T06:15:45.313Z,46.9
2023-10-06T06:16:32.769Z,46.8
2023-10-06T06:17:20.225Z,46.9
2023-10-06T06:18:07.738Z,47.0
2023-10-06T06:18:55.258Z,47.0
2023-10-06T06:19:42.761Z,47.1
2023-10-06T06:20:30.258Z,47.0
2023-10-06T06:21:17.954Z,47.2
2023-10-06T06:22:05.386Z,47.2
2023-10-06T06:22:52.906Z,47.6
2023-10-06T06:23:40.342Z,47.0
2023-10-06T06:24:27.965Z,47.0
2023-10-06T06:25:15.421Z,47.0
2023-10-06T06:26:02.888Z,46.9
2023-10-06T06:26:50.362Z,46.9
2023-10-06T06:27:37.839Z,46.8
2023-10-06T06:28:25.255Z,46.8
2023-10-06T06:29:12.870Z,46.9
2023-10-06T06:30:00.436Z,46.9
2023-10-06T06:30:47.972Z,46.9
2023-10-06T06:31:35.456Z,46.9
2023-10-06T06:32:22.918Z,47.1
2023-10-06T06:33:10.410Z,47.2
2023-10-06T06:33:58.835Z,47.2
2023-10-06T06:34:46.621Z,47.0
2023-10-06T06:35:34.078Z,47.0
2023-10-06T06:36:21.746Z,46.9
2023-10-06T06:37:09.208Z,46.9
2023-10-06T06:37:56.660Z,46.9
2023-10-06T06:38:44.129Z,46.9
2023-10-06T06:39:31.578Z,46.9
2023-10-06T06:40:18.996Z,46.8
2023-10-06T06:41:06.495Z,46.7
2023-10-06T06:41:53.971Z,46.8
2023-10-06T06:42:41.428Z,46.7
2023-10-06T06:43:28.876Z,46.6
2023-10-06T06:44:16.384Z,46.5
2023-10-06T06:45:03.874Z,46.4
2023-10-06T06:45:51.335Z,46.3
2023-10-06T06:46:38.775Z,46.8
2023-10-06T06:47:26.321Z,46.7
2023-10-06T06:48:13.907Z,46.6
2023-10-06T06:49:01.695Z,46.4
2023-10-06T06:49:49.353Z,46.4
2023-10-06T06:50:36.834Z,46.5
2023-10-06T06:51:24.269Z,46.3
2023-10-06T06:52:11.746Z,46.3
2023-10-06T06:52:59.278Z,46.3
2023-10-06T06:53:46.924Z,46.5
2023-10-06T06:54:34.647Z,46.7
2023-10-06T06:55:22.124Z,47.1
2023-10-06T06:56:09.604Z,46.2
2023-10-06T06:56:57.051Z,46.1
2023-10-06T06:57:44.578Z,46.4
2023-10-06T06:58:32.075Z,46.3
2023-10-06T06:59:19.643Z,46.2
2023-10-06T07:00:07.193Z,46.3
2023-10-06T07:00:55.023Z,46.2
2023-10-06T07:01:42.569Z,46.3
2023-10-06T07:02:30.181Z,46.3
2023-10-06T07:03:17.689Z,46.4
2023-10-06T07:04:05.178Z,46.5
2023-10-06T07:04:52.661Z,46.3
2023-10-06T07:05:40.114Z,46.1
2023-10-06T07:06:27.576Z,46.0
2023-10-06T07:07:15.053Z,46.1
2023-10-06T07:08:02.556Z,46.1
2023-10-06T07:08:50.042Z,45.8
2023-10-06T07:09:37.468Z,45.8
2023-10-06T07:10:25.145Z,45.7
2023-10-06T07:11:12.629Z,45.7
2023-10-06T07:12:00.151Z,45.6
2023-10-06T07:12:47.624Z,45.7
2023-10-06T07:13:35.090Z,45.7
2023-10-06T07:14:23.026Z,45.6
2023-10-06T07:15:10.498Z,45.8
2023-10-06T07:15:57.952Z,45.9
2023-10-06T07:16:45.493Z,46.0
2023-10-06T07:17:33.260Z,46.3
2023-10-06T07:18:20.903Z,46.3
2023-10-06T07:19:08.579Z,47.0
2023-10-06T07:19:56.263Z,46.4
2023-10-06T07:20:43.714Z,46.3
2023-10-06T07:21:31.559Z,46.1
2023-10-06T07:22:19.010Z,46.1
2023-10-06T07:23:06.465Z,46.0
2023-10-06T07:23:54.003Z,46.0
2023-10-06T07:24:41.566Z,46.1
2023-10-06T07:25:29.144Z,46.1
2023-10-06T07:26:16.728Z,46.1
2023-10-06T07:27:04.335Z,46.1
2023-10-06T07:27:51.779Z,46.0
2023-10-06T07:28:39.344Z,46.0
2023-10-06T07:29:26.841Z,45.9
2023-10-06T07:30:14.576Z,45.9
2023-10-06T07:31:02.023Z,45.9
2023-10-06T07:31:49.604Z,45.9
2023-10-06T07:32:37.230Z,45.9
2023-10-06T07:33:24.824Z,46.1
2023-10-06T07:34:12.246Z,46.0
2023-10-06T07:34:59.733Z,46.0
2023-10-06T07:35:47.153Z,46.1
2023-10-06T07:36:34.718Z,46.3
2023-10-06T07:37:22.153Z,46.3
2023-10-06T07:38:09.640Z,46.3
2023-10-06T07:38:57.143Z,46.2
2023-10-06T07:39:44.583Z,46.4
2023-10-06T07:40:32.043Z,46.4
2023-10-06T07:41:19.535Z,46.3
2023-10-06T07:42:06.979Z,46.1
2023-10-06T07:42:54.425Z,46.2
2023-10-06T07:43:41.872Z,46.2
2023-10-06T07:44:29.556Z,46.1
2023-10-06T07:45:17.085Z,46.3
2023-10-06T07:46:04.617Z,46.1
2023-10-06T07:46:52.136Z,46.2
2023-10-06T07:47:39.686Z,46.1
2023-10-06T07:48:27.376Z,46.1
2023-10-06T07:49:14.844Z,46.0
2023-10-06T07:50:02.338Z,46.0
2023-10-06T07:50:49.990Z,45.8
2023-10-06T07:51:37.641Z,45.9
2023-10-06T07:52:25.090Z,45.9
2023-10-06T07:53:12.605Z,46.0
2023-10-06T07:54:00.050Z,46.0
2023-10-06T07:54:47.482Z,46.0
2023-10-06T07:55:34.972Z,46.1
2023-10-06T07:56:22.451Z,46.1
2023-10-06T07:57:09.943Z,46.2
2023-10-06T07:57:57.395Z,46.2
2023-10-06T07:58:45.244Z,46.1
2023-10-06T07:59:32.794Z,46.1
2023-10-06T08:00:20.274Z,46.0
2023-10-06T08:01:07.751Z,46.1
2023-10-06T08:01:55.278Z,46.2
2023-10-06T08:02:42.731Z,46.2
2023-10-06T08:03:30.203Z,46.1
2023-10-06T08:04:17.705Z,46.0
2023-10-06T08:05:05.215Z,45.9
2023-10-06T08:05:52.694Z,45.9
2023-10-06T08:06:40.115Z,45.9
2023-10-06T08:07:27.551Z,45.9
2023-10-06T08:08:15.084Z,45.9
2023-10-06T08:09:02.597Z,46.0
2023-10-06T08:09:50.061Z,46.0
2023-10-06T08:10:37.516Z,46.0
2023-10-06T08:11:25.079Z,46.0
2023-10-06T08:12:12.513Z,46.2
2023-10-06T08:12:59.965Z,46.3
2023-10-06T08:13:47.479Z,46.2
2023-10-06T08:14:34.961Z,46.1
2023-10-06T08:15:22.504Z,46.4
2023-10-06T08:16:10.044Z,46.1
2023-10-06T08:16:57.798Z,46.0
2023-10-06T08:17:45.306Z,45.9
2023-10-06T08:18:32.741Z,45.9
2023-10-06T08:19:20.175Z,46.0
2023-10-06T08:20:07.671Z,45.9
2023-10-06T08:20:55.341Z,45.8
2023-10-06T08:21:42.870Z,45.8
2023-10-06T08:22:30.470Z,45.9
2023-10-06T08:23:17.994Z,45.9
2023-10-06T08:24:05.518Z,45.9
2023-10-06T08:24:53.061Z,46.1
2023-10-06T08:26:33.269Z,46.3
2023-10-06T08:27:20.804Z,46.3
2023-10-06T08:28:08.372Z,46.4
2023-10-06T08:28:55.839Z,46.6
2023-10-06T08:29:43.288Z,46.8
2023-10-06T08:30:30.725Z,47.1
2023-10-06T08:31:18.295Z,46.8
2023-10-06T08:32:05.826Z,46.7
2023-10-06T08:32:53.970Z,46.5
2023-10-06T08:33:41.837Z,46.4
2023-10-06T08:34:29.485Z,46.6
2023-10-06T08:35:17.054Z,46.6
2023-10-06T08:36:04.710Z,46.5
2023-10-06T08:36:52.164Z,46.5
2023-10-06T08:37:39.886Z,46.5
2023-10-06T08:38:27.373Z,46.4
2023-10-06T08:39:14.871Z,46.4
2023-10-06T08:40:03.790Z,46.3
2023-10-06T08:40:51.442Z,46.3
2023-10-06T08:41:38.967Z,46.2
2023-10-06T08:42:26.479Z,46.2
2023-10-06T08:43:14.063Z,46.3
2023-10-06T08:44:01.531Z,46.3
2023-10-06T08:44:49.386Z,46.2
2023-10-06T08:45:36.913Z,46.4
2023-10-06T08:46:24.465Z,46.2
2023-10-06T08:47:26.230Z,46.3
2023-10-06T08:48:09.645Z,46.3
2023-10-06T08:48:57.355Z,46.3
2023-10-06T08:49:44.898Z,46.3
2023-10-06T08:50:32.334Z,46.3
2023-10-06T08:51:19.760Z,46.4
2023-10-06T08:52:07.242Z,46.3
2023-10-06T08:52:54.734Z,46.1
2023-10-06T08:53:42.219Z,46.2
2023-10-06T08:54:29.677Z,45.8
2023-10-06T08:55:17.145Z,45.8
2023-10-06T08:56:04.647Z,45.7
2023-10-06T08:56:52.106Z,45.7
2023-10-06T08:57:39.534Z,45.7
2023-10-06T08:58:27.010Z,45.8
2023-10-06T08:59:14.519Z,45.7
2023-10-06T09:00:02.113Z,45.6
2023-10-06T09:00:49.564Z,45.5
2023-10-06T09:01:37.110Z,45.5
2023-10-06T09:02:24.924Z,45.7
2023-10-06T09:03:12.544Z,45.7
2023-10-06T09:04:00.254Z,45.9
2023-10-06T09:04:47.733Z,45.9
2023-10-06T09:05:35.201Z,45.8
2023-10-06T09:06:22.671Z,45.7
2023-10-06T09:07:10.110Z,45.7
2023-10-06T09:07:58.028Z,46.4
2023-10-06T09:08:45.853Z,45.8
2023-10-06T09:09:34.088Z,45.9
2023-10-06T09:10:21.576Z,46.0
2023-10-06T09:11:09.060Z,46.0
2023-10-06T09:11:56.686Z,46.0
2023-10-06T09:12:44.162Z,46.0
2023-10-06T09:13:31.915Z,46.0
2023-10-06T09:14:19.368Z,45.9
2023-10-06T09:15:06.937Z,45.9
2023-10-06T09:15:54.418Z,45.7
2023-10-06T09:16:42.202Z,45.6
2023-10-06T09:17:29.744Z,45.7
2023-10-06T09:18:17.207Z,45.7
2023-10-06T09:19:05.046Z,45.5
2023-10-06T09:19:53.509Z,45.6
2023-10-06T09:20:41.209Z,45.4
2023-10-06T09:21:28.805Z,45.5
2023-10-06T09:22:16.404Z,45.6
2023-10-06T09:23:04.083Z,45.5
2023-10-06T09:23:51.596Z,45.5
2023-10-06T09:24:39.275Z,45.5
2023-10-06T09:25:26.845Z,45.6
2023-10-06T09:26:14.511Z,45.5
2023-10-06T09:27:02.303Z,45.7
2023-10-06T09:27:49.846Z,45.7
2023-10-06T09:28:37.336Z,45.6
2023-10-06T09:29:24.818Z,45.6
2023-10-06T09:30:12.397Z,45.6
2023-10-06T09:31:00.109Z,45.6
2023-10-06T09:31:47.693Z,45.6
2023-10-06T09:32:35.234Z,45.5
2023-10-06T09:33:22.805Z,45.4
2023-10-06T09:34:11.503Z,45.4
2023-10-06T09:34:59.244Z,45.4
2023-10-06T09:35:46.736Z,45.4
2023-10-06T09:36:43.507Z,45.5
2023-10-06T09:37:31.586Z,45.3
2023-10-06T09:38:19.203Z,45.3
2023-10-06T09:39:06.712Z,45.6
2023-10-06T09:39:54.175Z,45.7
2023-10-06T09:40:41.624Z,45.9
2023-10-06T09:41:29.090Z,46.0
2023-10-06T09:42:16.638Z,46.1
2023-10-06T09:43:04.136Z,46.3
2023-10-06T09:43:51.861Z,46.2
2023-10-06T09:44:39.303Z,46.2
2023-10-06T09:45:26.841Z,46.0
2023-10-06T09:46:14.266Z,46.0
2023-10-06T09:47:01.854Z,46.0
2023-10-06T09:47:49.465Z,45.9
2023-10-06T09:48:37.068Z,46.0
2023-10-06T09:49:24.675Z,46.1
2023-10-06T09:50:12.151Z,46.2
2023-10-06T09:50:59.819Z,46.0
2023-10-06T09:51:47.457Z,45.9
2023-10-06T09:52:34.971Z,45.9
2023-10-06T09:53:22.490Z,46.0
2023-10-06T09:54:10.399Z,46.1
2023-10-06T09:54:58.037Z,46.2
2023-10-06T09:55:45.582Z,46.4
2023-10-06T09:56:33.011Z,46.4
2023-10-06T09:57:20.481Z,46.7
2023-10-06T09:58:07.975Z,46.4
2023-10-06T09:58:55.476Z,46.5
2023-10-06T09:59:43.068Z,46.6
2023-10-06T10:00:30.557Z,46.5
2023-10-06T10:01:18.294Z,46.6
2023-10-06T10:02:06.911Z,46.6
2023-10-06T10:02:54.814Z,46.6
2023-10-06T10:03:42.434Z,46.6
2023-10-06T10:04:29.961Z,46.7
2023-10-06T10:05:17.433Z,46.7
2023-10-06T10:06:04.918Z,46.9
2023-10-06T10:06:52.347Z,47.1
2023-10-06T10:07:39.779Z,47.1
2023-10-06T10:08:27.224Z,47.0
2023-10-06T10:09:14.699Z,47.2
2023-10-06T10:10:02.187Z,47.1
2023-10-06T10:10:49.701Z,47.0
2023-10-06T10:11:37.288Z,46.9
2023-10-06T10:12:24.971Z,47.0
2023-10-06T10:13:12.511Z,47.1
2023-10-06T10:14:02.140Z,47.0
2023-10-06T10:14:51.724Z,46.9
2023-10-06T10:15:39.223Z,47.0
2023-10-06T10:16:26.851Z,47.0
2023-10-06T10:17:14.416Z,47.0
2023-10-06T10:18:01.899Z,46.9
2023-10-06T10:18:49.629Z,47.0
2023-10-06T10:19:37.241Z,46.8
2023-10-06T10:20:24.793Z,46.7
2023-10-06T10:21:12.278Z,46.7
2023-10-06T10:22:00.040Z,46.7
2023-10-06T10:22:47.521Z,46.6
2023-10-06T10:23:34.954Z,46.7
2023-10-06T10:25:24.669Z,46.7
2023-10-06T10:26:10.151Z,46.6
2023-10-06T10:26:58.165Z,46.6
2023-10-06T10:34:30.757Z,46.6
2023-10-06T10:42:03.302Z,46.9
2023-10-06T10:49:35.820Z,46.8
2023-10-06T10:56:58.338Z,46.7
2023-10-06T10:57:46.884Z,46.6
2023-10-06T10:58:34.389Z,46.8
2023-10-06T10:59:21.873Z,47.1
2023-10-06T11:00:09.312Z,47.0
2023-10-06T11:00:56.819Z,47.0
2023-10-06T11:01:44.329Z,47.0
2023-10-06T11:02:31.813Z,46.6
2023-10-06T11:03:19.362Z,47.0
2023-10-06T11:04:06.949Z,47.0
2023-10-06T11:04:54.733Z,46.9
2023-10-06T11:05:42.199Z,47.0
2023-10-06T11:06:29.686Z,46.8
2023-10-06T11:07:17.216Z,46.8
2023-10-06T11:08:05.366Z,46.8
2023-10-06T11:08:52.908Z,46.8
2023-10-06T11:09:40.360Z,46.8
2023-10-06T11:10:27.868Z,46.8
2023-10-06T11:11:15.353Z,46.9
2023-10-06T11:12:53.179Z,46.9
2023-10-06T11:13:54.145Z,46.8
2023-10-06T11:14:38.107Z,46.9
2023-10-06T11:15:25.543Z,47.1
2023-10-06T11:16:13.111Z,47.0
2023-10-06T11:17:00.597Z,46.9
2023-10-06T11:17:48.116Z,46.8
2023-10-06T11:18:35.742Z,46.9
2023-10-06T11:19:23.225Z,47.0
2023-10-06T11:20:10.715Z,46.9
2023-10-06T11:20:58.197Z,46.9
2023-10-06T11:21:45.787Z,47.0
2023-10-06T11:22:33.229Z,47.2
2023-10-06T11:23:21.007Z,47.2
2023-10-06T11:24:09.159Z,47.0
2023-10-06T11:24:56.751Z,46.6
2023-10-06T11:25:44.210Z,46.4
2023-10-06T11:26:31.689Z,46.3
2023-10-06T11:27:19.296Z,46.2
2023-10-06T11:28:06.815Z,46.1
2023-10-06T11:28:54.553Z,46.2
2023-10-06T11:29:42.036Z,46.2
2023-10-06T11:30:29.727Z,46.2
2023-10-06T11:31:17.361Z,46.3
2023-10-06T11:32:05.024Z,46.3
2023-10-06T11:32:52.528Z,46.3
2023-10-06T11:33:40.020Z,46.3
2023-10-06T11:34:27.477Z,46.3
2023-10-06T11:35:14.968Z,46.3
2023-10-06T11:36:02.464Z,46.1
2023-10-06T11:36:49.887Z,45.9
2023-10-06T11:37:37.351Z,45.6
2023-10-06T11:38:24.818Z,45.7
2023-10-06T11:39:12.303Z,45.9
2023-10-06T11:39:59.740Z,45.9
2023-10-06T11:40:47.207Z,46.1
2023-10-06T11:41:34.736Z,46.0
2023-10-06T11:42:22.185Z,46.0
2023-10-06T11:43:09.626Z,45.8
2023-10-06T11:43:57.121Z,45.6
2023-10-06T11:44:44.620Z,45.6
2023-10-06T11:45:32.272Z,45.7
2023-10-06T11:46:19.752Z,45.7
2023-10-06T11:47:07.430Z,45.8
2023-10-06T11:47:55.010Z,45.8
2023-10-06T11:48:42.580Z,45.9
2023-10-06T11:49:30.042Z,45.8
2023-10-06T11:50:17.572Z,45.7
2023-10-06T11:51:05.180Z,45.5
2023-10-06T11:51:52.751Z,45.5
2023-10-06T11:52:40.362Z,45.6
2023-10-06T11:53:27.896Z,45.5
2023-10-06T11:54:15.427Z,45.7
2023-10-06T11:55:02.913Z,45.8
2023-10-06T11:55:50.361Z,45.8
2023-10-06T11:56:37.898Z,45.8
2023-10-06T11:57:25.363Z,45.6
2023-10-06T11:58:12.787Z,45.4
2023-10-06T11:59:00.302Z,45.4
2023-10-06T11:59:47.782Z,45.3
2023-10-06T12:00:35.255Z,45.9
2023-10-06T12:01:22.773Z,45.4
2023-10-06T12:02:10.503Z,46.0
2023-10-06T12:02:58.310Z,45.3
2023-10-06T12:03:46.005Z,45.3
2023-10-06T12:04:33.630Z,45.3
2023-10-06T12:05:21.406Z,45.5
2023-10-06T12:06:08.908Z,45.6
2023-10-06T12:06:56.594Z,45.8
2023-10-06T12:07:46.922Z,45.7
2023-10-06T12:08:34.612Z,45.6
2023-10-06T12:09:22.151Z,45.5
2023-10-06T12:10:09.810Z,45.8
2023-10-06T12:10:57.258Z,46.0
2023-10-06T12:11:45.178Z,45.7
2023-10-06T12:12:32.617Z,45.8
2023-10-06T12:13:20.280Z,46.4
2023-10-06T12:14:07.985Z,45.6
2023-10-06T12:14:55.626Z,45.4
2023-10-06T12:15:43.084Z,45.4
2023-10-06T12:16:30.556Z,45.4
2023-10-06T12:17:18.236Z,45.0
2023-10-06T12:18:05.728Z,44.6
2023-10-06T12:18:53.438Z,44.5
2023-10-06T12:19:40.875Z,44.5
2023-10-06T12:20:28.414Z,44.3
2023-10-06T12:21:15.970Z,44.6
2023-10-06T12:22:03.510Z,44.6
2023-10-06T12:22:50.942Z,44.6
2023-10-06T12:23:39.008Z,44.5
2023-10-06T12:24:26.531Z,44.6
2023-10-06T12:25:14.114Z,44.6
2023-10-06T12:26:03.569Z,44.6
2023-10-06T12:26:51.550Z,44.8
2023-10-06T12:27:39.076Z,44.9
2023-10-06T12:28:26.625Z,45.1
2023-10-06T12:29:14.079Z,45.3
2023-10-06T12:30:01.557Z,45.2
2023-10-06T12:30:49.105Z,45.3
2023-10-06T12:31:36.610Z,45.4
2023-10-06T12:32:24.100Z,45.5
2023-10-06T12:33:11.580Z,45.6
2023-10-06T12:33:59.114Z,45.8
2023-10-06T12:34:46.605Z,45.8
2023-10-06T12:35:34.118Z,45.8
2023-10-06T12:36:21.636Z,45.8
2023-10-06T12:37:09.080Z,45.7
2023-10-06T12:37:56.531Z,45.6
2023-10-06T12:38:44.110Z,45.6
2023-10-06T12:39:31.669Z,45.6
2023-10-06T12:40:19.182Z,45.5
2023-10-06T12:41:06.726Z,45.4
2023-10-06T12:41:54.187Z,45.5
2023-10-06T12:42:41.638Z,45.6
2023-10-06T12:43:29.057Z,45.7
2023-10-06T12:44:16.583Z,45.5
2023-10-06T12:45:04.594Z,45.6
2023-10-06T12:45:53.350Z,45.6
2023-10-06T12:46:41.070Z,45.6
2023-10-06T12:47:28.660Z,45.6
2023-10-06T12:48:16.355Z,45.6
2023-10-06T12:49:03.962Z,45.6
2023-10-06T12:49:51.422Z,45.6
2023-10-06T12:50:38.895Z,45.4
2023-10-06T12:51:26.438Z,45.5
2023-10-06T12:52:14.078Z,45.6
2023-10-06T12:53:01.818Z,45.7
2023-10-06T12:53:49.403Z,45.8
2023-10-06T12:54:36.858Z,45.8
2023-10-06T12:55:24.306Z,45.9
2023-10-06T12:56:11.788Z,46.0
2023-10-06T12:56:59.222Z,46.1
2023-10-06T12:57:46.685Z,46.2
2023-10-06T12:58:34.113Z,46.3
2023-10-06T12:59:21.577Z,46.2
2023-10-06T13:00:09.024Z,46.2
2023-10-06T13:00:56.575Z,46.2
2023-10-06T13:01:44.025Z,46.7
2023-10-06T13:02:31.500Z,46.3
2023-10-06T13:03:19.141Z,46.3
2023-10-06T13:04:06.896Z,46.3
2023-10-06T13:04:54.952Z,46.4
2023-10-06T13:05:42.632Z,46.4
2023-10-06T13:06:30.093Z,46.4
2023-10-06T13:07:17.527Z,46.4
2023-10-06T13:08:05.082Z,46.5
2023-10-06T13:08:52.519Z,46.5
2023-10-06T13:09:39.969Z,46.4
2023-10-06T13:10:27.584Z,46.3
2023-10-06T13:11:15.044Z,46.2
2023-10-06T13:12:02.944Z,46.3
2023-10-06T13:12:51.625Z,46.1
2023-10-06T13:13:39.061Z,45.9
2023-10-06T13:14:26.865Z,45.9
2023-10-06T13:15:14.513Z,45.9
2023-10-06T13:16:02.049Z,45.8
2023-10-06T13:16:49.563Z,45.9
2023-10-06T13:17:37.015Z,45.9
2023-10-06T13:18:24.491Z,46.0
2023-10-06T13:19:11.981Z,46.1
2023-10-06T13:19:59.486Z,46.2
2023-10-06T13:20:47.055Z,46.3
2023-10-06T13:21:34.572Z,46.4
2023-10-06T13:22:22.297Z,46.4
2023-10-06T13:23:09.759Z,46.6
2023-10-06T13:23:57.203Z,46.6
2023-10-06T13:24:44.673Z,46.6
2023-10-06T13:25:32.128Z,46.6
2023-10-06T13:26:35.858Z,46.5
2023-10-06T13:27:16.955Z,46.6
2023-10-06T13:28:04.397Z,46.8
2023-10-06T13:28:51.846Z,46.8
2023-10-06T13:29:39.336Z,46.7
2023-10-06T13:30:26.787Z,46.7
2023-10-06T13:31:14.453Z,46.7
2023-10-06T13:32:02.052Z,46.5
2023-10-06T13:32:49.739Z,46.5
2023-10-06T13:33:37.732Z,46.5
2023-10-06T13:34:25.490Z,46.6
2023-10-06T13:35:13.062Z,46.5
2023-10-06T13:36:02.404Z,46.5
2023-10-06T13:36:51.783Z,46.7
2023-10-06T13:37:39.254Z,46.7
2023-10-06T13:38:26.823Z,46.7
2023-10-06T13:39:14.338Z,46.7
2023-10-06T13:40:02.068Z,46.7
2023-10-06T13:40:49.761Z,46.7
2023-10-06T13:41:37.225Z,46.7
2023-10-06T13:42:24.719Z,46.7
2023-10-06T13:43:12.166Z,46.7
2023-10-06T13:43:59.653Z,46.8
2023-10-06T13:44:47.103Z,46.7
2023-10-06T13:45:34.595Z,47.2
2023-10-06T13:46:22.133Z,47.3
2023-10-06T13:47:09.601Z,47.2
2023-10-06T13:47:57.128Z,47.2
2023-10-06T13:48:44.749Z,47.2
2023-10-06T13:49:32.243Z,47.2
2023-10-06T13:50:19.779Z,47.2
2023-10-06T13:51:07.370Z,47.1
2023-10-06T13:51:54.825Z,47.2
2023-10-06T13:52:42.258Z,47.3
2023-10-06T13:53:29.736Z,47.4
2023-10-06T13:54:17.180Z,47.4
2023-10-06T13:55:04.608Z,47.5
2023-10-06T13:55:52.035Z,47.6
2023-10-06T13:56:39.520Z,47.7
2023-10-06T13:57:27.032Z,47.6
2023-10-06T13:58:14.486Z,47.6
2023-10-06T13:59:01.977Z,47.6
2023-10-06T13:59:49.447Z,47.7
2023-10-06T14:00:36.913Z,47.6
2023-10-06T14:01:24.381Z,47.5
2023-10-06T14:02:11.943Z,47.5
2023-10-06T14:02:59.819Z,47.5
2023-10-06T14:03:47.701Z,47.5
2023-10-06T14:04:35.321Z,47.5
2023-10-06T14:05:22.777Z,47.5
2023-10-06T14:06:10.510Z,47.7
2023-10-06T14:06:58.126Z,47.8
2023-10-06T14:07:45.558Z,47.7
2023-10-06T14:08:33.089Z,47.4
2023-10-06T14:09:20.600Z,47.4
2023-10-06T14:10:08.042Z,47.4
2023-10-06T14:10:56.079Z,47.5
2023-10-06T14:11:43.689Z,47.3
2023-10-06T14:12:31.420Z,47.2
2023-10-06T14:13:19.020Z,47.1
2023-10-06T14:14:06.593Z,47.2
2023-10-06T14:14:54.008Z,47.1
2023-10-06T14:15:41.456Z,47.2
2023-10-06T14:16:28.905Z,47.3
2023-10-06T14:17:16.641Z,47.2
2023-10-06T14:18:04.255Z,47.3
2023-10-06T14:18:51.740Z,47.4
2023-10-06T14:19:39.260Z,47.3
2023-10-06T14:20:26.705Z,47.4
2023-10-06T14:21:14.150Z,47.3
2023-10-06T14:22:01.703Z,47.2
2023-10-06T14:22:49.214Z,47.2
2023-10-06T14:23:36.994Z,47.4
2023-10-06T14:24:24.582Z,47.4
2023-10-06T14:25:12.031Z,46.9
2023-10-06T14:25:59.495Z,46.8
2023-10-06T14:26:47.120Z,46.8
2023-10-06T14:27:34.577Z,46.8
2023-10-06T14:28:22.075Z,46.8
2023-10-06T14:29:09.568Z,46.9
2023-10-06T14:29:57.016Z,46.9
2023-10-06T14:30:44.572Z,46.9
2023-10-06T14:31:32.174Z,47.0
2023-10-06T14:32:19.794Z,46.8
2023-10-06T14:33:07.388Z,46.5
2023-10-06T14:33:54.947Z,46.6
2023-10-06T14:34:42.513Z,46.6
2023-10-06T14:35:30.213Z,46.5
2023-10-06T14:36:18.429Z,46.5
2023-10-06T14:37:05.863Z,46.5
2023-10-06T14:37:53.291Z,46.7
2023-10-06T14:38:40.745Z,46.7
2023-10-06T14:39:28.195Z,46.7
2023-10-06T14:40:15.624Z,46.9
2023-10-06T14:41:03.328Z,46.8
2023-10-06T14:41:50.806Z,46.7
2023-10-06T14:42:38.528Z,46.2
2023-10-06T14:43:25.969Z,46.0
2023-10-06T14:44:13.672Z,45.9
2023-10-06T14:45:01.355Z,45.8
2023-10-06T14:45:48.854Z,45.8
2023-10-06T14:46:36.313Z,45.7
2023-10-06T14:47:23.916Z,45.9
2023-10-06T14:48:11.381Z,46.5
2023-10-06T14:48:58.902Z,46.1
2023-10-06T14:49:46.367Z,46.1
2023-10-06T14:50:33.850Z,46.2
2023-10-06T14:51:21.318Z,46.2
2023-10-06T14:52:08.754Z,46.2
2023-10-06T14:52:56.358Z,46.0
2023-10-06T14:53:44.099Z,45.8
2023-10-06T14:54:32.082Z,45.8
2023-10-06T14:55:19.753Z,45.4
2023-10-06T14:56:07.280Z,45.5
2023-10-06T14:56:54.830Z,45.7
2023-10-06T14:57:42.383Z,45.7
2023-10-06T14:58:29.806Z,45.6